Portada
METAR-TAF:

METAR-TAF

Aeropuertos :

Fort-de-France, Martinica

Aeropuerto Internacional de Martinica Aimé Césaire

latitud: 14-36N, longitud: 061-00W, altitud: 5 m

Observación

El informe se hizo hace 26 minutos, a las 19:30 UTC
Viento 13 kt del este-sureste
Temperatura 29°C
Humedad 66%
Presión 1014 hPa
Visibilidad 10 km o más

METAR: TFFF 181930Z AUTO 11013KT 9999 NCD 29/22 Q1014 TEMPO 4000 SHRA SCT015TCU

Hora: 15:56 (19:56 UTC)

Pronóstico

El informe se hizo hace 2 horas y 56 minutos, a las 17:00 UTC
Pronóstico válido del 18 a las 18 UTC al 19 a las 18 UTC
Viento 10 kt del este
Visibilidad 10 km o más
Nubes dispersas a una altura de 3000 ft
Temporalmente
del 18 a las 18 UTC al 19 a las 12 UTC
Visibilidad: 4000 m
Nubes dispersas a una altura de 1500 ft, Cumulus congestus.
chaparrones de lluvia

TAF: TFFF 181700Z 1818/1918 10010KT 9999 SCT030 TEMPO 1818/1912 4000 SHRA SCT015TCU

Observaciones y pronósticos meteorológicos de más de 4000 aeropuertos (mensajes METAR y TAF).

Los puntos amarillos y rojos representan las estaciones disponibles.

Ponga el ratón en el punto deseado para ver el nombre de la estación.

Haga clic para ver las observaciones y los pronósticos meteorológicos.

Para cambiar el mapa : haga clic en los botones verdes con una cruz de color negro para hacer un zoom, en el botón verde con un guión para alejar o en las flechas verdes para mapas adyacentes.


METAR-TAF: